Kibble, Illinois
Current Conditions -  °F | °C
As of 6:55 AM on Friday 19 Dec 2014 (Local Time) from KRSV Reporting Station
Clear Clear  
Wind Chill: 25°   Ceiling: Unl
Heat Index: 25°   Visibility: 10mi
Dew Point: 22°   Wind: 0mph
Humidity: 90%   Direction: NA
Pressure: 30.33"   Gusts: NA
Location:  39.0119°N, 87.8886°W
Report Text: KRSV 191255Z AUTO 00000KT 10SM CLR M04/M05 A3033 RMK AO2 T10401054
Loading
Personal Weather Stations






























Interactive Weather Map New forecast layout! Learn more

10-Day Weather Forecast

Advertisements
Track Severe Weather on mobile